Time;durP1;ratioP1;P1;durP2;ratioP2;P2;SDS_P1;SDS_P2;PMS_P1;PMS_P2;Temp;Humidity;BMP_temperature;BMP_pressure;BME280_temperature;BME280_humidity;BME280_pressure;Samples;Min_cycle;Max_cycle;Signal;HPM_P1;HPM_P2
2021/12/18 00:01:17;;;;;;;6.03;4.57;;;;;;;5.85;100.00;103922.66;4846502;29;20663;-81
2021/12/18 00:03:43;;;;;;;6.90;4.38;;;;;;;5.86;100.00;103921.81;4860397;29;20191;-81
2021/12/18 00:06:09;;;;;;;6.15;4.68;;;;;;;5.87;100.00;103920.94;4844596;29;20250;-81
2021/12/18 00:08:35;;;;;;;7.25;5.40;;;;;;;5.84;100.00;103917.28;4843620;29;20199;-81
2021/12/18 00:11:01;;;;;;;6.57;4.90;;;;;;;5.87;100.00;103917.41;4844276;29;20178;-81
2021/12/18 00:13:26;;;;;;;7.25;4.72;;;;;;;5.89;100.00;103916.59;4846687;29;20407;-81
2021/12/18 00:15:52;;;;;;;7.03;5.15;;;;;;;5.85;100.00;103913.78;4844868;29;20681;-80
2021/12/18 00:18:18;;;;;;;7.63;5.03;;;;;;;5.82;100.00;103909.28;4846304;29;20182;-81
2021/12/18 00:20:43;;;;;;;7.50;4.93;;;;;;;5.82;100.00;103909.28;4847594;29;20185;-82
2021/12/18 00:23:09;;;;;;;7.03;4.68;;;;;;;5.88;100.00;103909.47;4847433;29;20301;-82
2021/12/18 00:25:34;;;;;;;7.88;5.13;;;;;;;5.85;100.00;103903.13;4860874;29;20285;-82
2021/12/18 00:28:00;;;;;;;8.50;5.45;;;;;;;5.80;100.00;103892.34;4846514;29;20517;-83
2021/12/18 00:30:26;;;;;;;8.57;5.15;;;;;;;5.85;100.00;103897.81;4861758;29;20693;-82
2021/12/18 00:32:52;;;;;;;9.52;5.55;;;;;;;5.88;100.00;103897.91;4861946;29;20214;-82
2021/12/18 00:35:17;;;;;;;7.38;5.32;;;;;;;5.89;100.00;103897.06;4861187;29;20294;-81
2021/12/18 00:37:44;;;;;;;8.13;5.43;;;;;;;5.89;100.00;103895.28;4845686;29;20544;-81
2021/12/18 00:40:17;;;;;;;8.18;5.25;;;;;;;5.88;100.00;103901.50;4843981;29;20179;-82
2021/12/18 00:43:20;;;;;;;8.77;5.85;;;;;;;5.84;100.00;103903.97;4846144;29;20210;-82
2021/12/18 00:45:30;;;;;;;7.63;4.97;;;;;;;5.88;100.00;103903.22;4845548;29;20277;-82
2021/12/18 00:47:56;;;;;;;7.90;5.35;;;;;;;5.81;100.00;103896.81;4843547;29;20241;-82
2021/12/18 00:50:25;;;;;;;8.25;5.32;;;;;;;5.88;100.00;103898.81;4843677;29;20189;-81
2021/12/18 00:52:51;;;;;;;7.35;5.28;;;;;;;5.96;100.00;103901.75;4842953;29;20258;-80
2021/12/18 00:55:20;;;;;;;7.55;5.43;;;;;;;5.90;100.00;103907.75;4844178;29;20195;-80
2021/12/18 00:57:48;;;;;;;6.85;4.70;;;;;;;5.97;100.00;103904.47;4858350;29;20179;-81
2021/12/18 01:00:21;;;;;;;9.20;4.97;;;;;;;5.90;100.00;103901.50;4859267;29;20175;-82
2021/12/18 01:02:47;;;;;;;6.25;4.53;;;;;;;5.94;100.00;103906.06;4858317;29;20550;-80
2021/12/18 01:05:13;;;;;;;6.88;4.20;;;;;;;5.95;100.00;103897.28;4858148;29;20178;-81
2021/12/18 01:07:39;;;;;;;5.63;4.45;;;;;;;5.98;100.00;103905.34;4847036;29;20316;-81
2021/12/18 01:10:24;;;;;;;6.25;4.20;;;;;;;5.96;100.00;103899.97;4846959;29;20785;-81
2021/12/18 01:12:52;;;;;;;5.68;3.72;;;;;;;5.97;100.00;103887.59;4847632;29;20210;-81
2021/12/18 01:15:24;;;;;;;5.05;3.40;;;;;;;5.96;100.00;103896.41;4847598;29;20250;-81
2021/12/18 01:23:21;;;;;;;3.45;3.15;;;;;;;5.87;100.00;103891.69;4861960;29;20206;-81
2021/12/18 01:25:47;;;;;;;4.75;3.80;;;;;;;5.85;100.00;103892.50;4846806;29;20182;-80
2021/12/18 01:28:13;;;;;;;4.85;3.70;;;;;;;5.81;100.00;103890.59;4860421;29;20174;-80
2021/12/18 01:30:38;;;;;;;4.82;3.55;;;;;;;5.84;100.00;103901.31;4846047;29;20179;-80
2021/12/18 01:33:03;;;;;;;5.60;3.30;;;;;;;5.76;100.00;103893.13;4846117;29;20277;-80
2021/12/18 01:35:29;;;;;;;6.40;2.85;;;;;;;5.80;100.00;103900.34;4860620;29;20714;-80
2021/12/18 01:37:55;;;;;;;5.95;3.47;;;;;;;5.74;100.00;103895.72;4846046;29;20171;-80
2021/12/18 01:40:22;;;;;;;4.95;3.97;;;;;;;5.68;100.00;103911.47;4860561;29;20178;-80
2021/12/18 01:45:43;;;;;;;5.20;3.40;;;;;;;5.66;100.00;103896.34;4848084;29;20190;-80
2021/12/18 01:53:37;;;;;;;2.80;2.60;;;;;;;5.58;100.00;103890.78;4847157;29;20195;-81
2021/12/18 01:56:03;;;;;;;3.97;3.15;;;;;;;5.60;100.00;103897.06;4846850;29;20323;-81
2021/12/18 01:58:29;;;;;;;3.05;2.80;;;;;;;5.61;100.00;103890.88;4844944;29;20178;-81
2021/12/18 02:00:56;;;;;;;3.88;3.55;;;;;;;5.64;100.00;103893.66;4860018;29;20193;-81
2021/12/18 02:03:22;;;;;;;3.38;3.08;;;;;;;5.69;100.00;103891.13;4860023;29;20199;-80
2021/12/18 02:05:50;;;;;;;2.63;2.42;;;;;;;5.72;100.00;103896.53;4859976;29;20214;-81
2021/12/18 02:08:21;;;;;;;2.65;2.30;;;;;;;5.72;100.00;103888.53;4845725;29;20175;-80
2021/12/18 02:10:52;;;;;;;2.00;1.83;;;;;;;5.82;100.00;103880.00;4846537;29;20203;-80
2021/12/18 02:21:28;;;;;;;3.38;2.50;;;;;;;5.75;100.00;103876.25;4845409;29;20209;-80
2021/12/18 02:23:54;;;;;;;4.32;2.97;;;;;;;5.81;100.00;103877.28;4845784;29;20175;-80
2021/12/18 02:26:21;;;;;;;5.03;3.20;;;;;;;5.83;100.00;103875.59;4859791;29;20231;-80
2021/12/18 02:28:48;;;;;;;3.35;3.05;;;;;;;5.74;100.00;103877.09;4845541;29;20198;-80
2021/12/18 02:31:14;;;;;;;2.85;2.42;;;;;;;5.80;100.00;103864.84;4859851;29;20548;-79
2021/12/18 02:33:40;;;;;;;3.80;2.80;;;;;;;5.74;100.00;103870.88;4845721;29;20175;-80
2021/12/18 02:36:09;;;;;;;2.88;2.30;;;;;;;5.75;100.00;103860.28;4859328;29;20206;-80
2021/12/18 02:39:03;;;;;;;3.92;2.20;;;;;;;5.72;100.00;103860.19;4845192;29;20182;-80
2021/12/18 02:41:40;;;;;;;3.33;2.10;;;;;;;5.69;100.00;103854.78;4841860;29;20175;-79
2021/12/18 02:44:09;;;;;;;3.28;2.08;;;;;;;5.75;100.00;103862.03;4845048;29;20175;-79
2021/12/18 02:46:35;;;;;;;3.38;2.00;;;;;;;5.74;100.00;103853.16;4844727;29;20186;-80
2021/12/18 02:49:07;;;;;;;2.97;2.53;;;;;;;5.74;100.00;103855.81;4844967;29;20175;-79
2021/12/18 02:51:33;;;;;;;3.00;1.95;;;;;;;5.72;100.00;103860.19;4858861;29;20776;-80
2021/12/18 02:53:58;;;;;;;2.45;1.70;;;;;;;5.76;100.00;103854.09;4845202;29;20185;-79
2021/12/18 02:56:24;;;;;;;2.80;2.08;;;;;;;5.72;100.00;103859.28;4856745;29;20178;-79
2021/12/18 02:58:53;;;;;;;2.60;2.38;;;;;;;5.77;100.00;103853.25;4838703;29;20185;-79
2021/12/18 03:01:22;;;;;;;4.20;2.10;;;;;;;5.69;100.00;103854.78;4855598;29;20185;-78
2021/12/18 03:03:49;;;;;;;2.17;1.95;;;;;;;5.64;100.00;103835.13;4874902;29;20246;-79
2021/12/18 03:08:56;;;;;;;3.33;2.25;;;;;;;5.56;100.00;103832.22;4855771;29;20605;-79
2021/12/18 03:25:03;;;;;;;2.05;1.50;;;;;;;5.35;100.00;103831.53;4877061;29;20625;-79
2021/12/18 03:27:29;;;;;;;1.48;1.38;;;;;;;5.35;100.00;103829.78;4877228;29;20186;-80
2021/12/18 03:29:56;;;;;;;1.40;1.25;;;;;;;5.33;100.00;103826.16;4863244;29;20178;-80
2021/12/18 03:32:23;;;;;;;1.63;1.20;;;;;;;5.33;100.00;103831.47;4863128;29;20201;-80
2021/12/18 03:34:49;;;;;;;1.30;1.20;;;;;;;5.34;100.00;103821.78;4877287;29;20202;-80
2021/12/18 03:37:15;;;;;;;1.08;0.90;;;;;;;5.42;100.00;103827.31;4866113;29;20486;-80
2021/12/18 03:39:41;;;;;;;1.50;1.20;;;;;;;5.33;100.00;103830.59;4863031;29;20174;-80
2021/12/18 03:42:08;;;;;;;3.75;1.20;;;;;;;5.31;100.00;103819.00;4864358;29;20198;-80
2021/12/18 03:44:34;;;;;;;1.20;1.10;;;;;;;5.32;100.00;103816.41;4862247;29;20190;-80
2021/12/18 03:47:00;;;;;;;0.93;0.90;;;;;;;5.30;100.00;103820.75;4861417;29;20185;-80
2021/12/18 03:49:26;;;;;;;1.20;0.95;;;;;;;5.33;100.00;103819.94;4877493;29;20521;-80
2021/12/18 03:51:51;;;;;;;2.05;1.08;;;;;;;5.35;100.00;103811.16;4862548;29;20680;-80
2021/12/18 03:54:17;;;;;;;3.95;1.05;;;;;;;5.31;100.00;103819.00;4863457;29;20210;-79
2021/12/18 03:56:42;;;;;;;1.25;1.15;;;;;;;5.29;100.00;103815.38;4864487;29;20170;-79
2021/12/18 03:59:08;;;;;;;2.10;1.10;;;;;;;5.29;100.00;103826.03;4878480;29;20238;-79
2021/12/18 04:01:33;;;;;;;1.05;0.80;;;;;;;5.30;100.00;103822.53;4862753;29;20194;-79
2021/12/18 04:03:59;;;;;;;1.05;1.00;;;;;;;5.32;100.00;103826.13;4877867;29;20644;-79
2021/12/18 04:06:25;;;;;;;1.10;0.88;;;;;;;5.35;100.00;103812.94;4863525;29;20175;-79
2021/12/18 04:08:50;;;;;;;0.80;0.80;;;;;;;5.33;100.00;103806.66;4863267;29;20554;-80
2021/12/18 04:11:16;;;;;;;0.82;0.70;;;;;;;5.38;100.00;103818.34;4861972;29;20200;-79
2021/12/18 04:13:45;;;;;;;0.93;0.80;;;;;;;5.37;100.00;103812.13;4863000;29;20170;-80
2021/12/18 04:16:11;;;;;;;1.05;0.90;;;;;;;5.29;100.00;103818.03;4877508;29;20202;-79
2021/12/18 04:18:37;;;;;;;1.10;1.00;;;;;;;5.34;100.00;103814.69;4862689;29;20547;-80
2021/12/18 04:21:02;;;;;;;0.88;0.88;;;;;;;5.35;100.00;103807.59;4877221;29;20197;-79
2021/12/18 04:23:28;;;;;;;1.30;1.13;;;;;;;5.38;100.00;103815.69;4860763;29;20205;-79
2021/12/18 04:25:55;;;;;;;2.17;1.20;;;;;;;5.38;100.00;103805.06;4858640;29;20613;-79
2021/12/18 04:28:20;;;;;;;1.65;1.40;;;;;;;5.31;100.00;103814.59;4874164;29;20665;-79
2021/12/18 04:30:46;;;;;;;1.20;1.10;;;;;;;5.41;100.00;103814.88;4874807;29;20233;-79
2021/12/18 04:33:11;;;;;;;1.27;1.00;;;;;;;5.33;100.00;103815.53;4860465;29;20574;-78
2021/12/18 04:35:37;;;;;;;1.80;1.50;;;;;;;5.34;100.00;103808.47;4873673;29;20258;-78
2021/12/18 04:38:02;;;;;;;1.88;1.50;;;;;;;5.20;100.00;103809.78;4858145;29;20550;-78
2021/12/18 04:40:28;;;;;;;1.90;1.45;;;;;;;5.12;100.00;103801.56;4874008;29;20232;-78
2021/12/18 04:42:54;;;;;;;1.70;1.60;;;;;;;5.10;100.00;103803.28;4865656;29;20288;-78
2021/12/18 04:45:20;;;;;;;2.47;1.70;;;;;;;5.16;100.00;103793.75;4865436;29;20182;-79
2021/12/18 04:47:45;;;;;;;2.17;1.60;;;;;;;5.15;100.00;103794.59;4881241;29;20197;-79
2021/12/18 04:50:11;;;;;;;1.95;1.25;;;;;;;5.19;100.00;103794.69;4867792;29;20264;-79
2021/12/18 04:52:36;;;;;;;2.33;1.60;;;;;;;5.21;100.00;103795.66;4866702;29;20194;-79
2021/12/18 04:55:04;;;;;;;1.40;1.30;;;;;;;5.14;100.00;103795.44;4868246;29;20293;-79
2021/12/18 04:57:29;;;;;;;1.67;1.50;;;;;;;5.03;100.00;103799.53;4870357;29;20174;-78
2021/12/18 04:59:55;;;;;;;1.63;1.50;;;;;;;5.06;100.00;103802.28;4850720;29;20551;-79
2021/12/18 05:02:24;;;;;;;1.60;1.50;;;;;;;4.97;100.00;103795.75;4872568;29;20209;-79
2021/12/18 05:04:51;;;;;;;1.27;1.17;;;;;;;4.96;100.00;103789.53;4884413;29;20210;-79
2021/12/18 05:07:17;;;;;;;1.13;1.00;;;;;;;5.04;100.00;103781.81;4878251;29;20189;-78
2021/12/18 05:09:42;;;;;;;1.55;1.42;;;;;;;4.98;100.00;103778.97;4856830;29;20201;-78
2021/12/18 05:12:09;;;;;;;1.73;1.50;;;;;;;4.97;100.00;103783.38;4849060;29;20210;-79
2021/12/18 05:14:35;;;;;;;1.45;1.35;;;;;;;5.04;100.00;103787.13;4878781;29;20832;-78
2021/12/18 05:17:00;;;;;;;1.70;1.50;;;;;;;4.96;100.00;103778.91;4879459;29;20193;-80
2021/12/18 05:19:26;;;;;;;2.13;1.60;;;;;;;5.00;100.00;103785.22;4880427;29;20544;-80
2021/12/18 05:21:51;;;;;;;1.30;1.20;;;;;;;5.02;100.00;103789.72;4879177;29;20199;-80
2021/12/18 05:24:17;;;;;;;1.65;1.27;;;;;;;5.02;100.00;103783.53;4879365;29;20256;-80
2021/12/18 05:26:42;;;;;;;2.05;1.30;;;;;;;5.04;100.00;103777.41;4849460;29;20266;-79
2021/12/18 05:29:08;;;;;;;1.88;1.38;;;;;;;5.03;100.00;103780.00;4863541;29;20186;-80
2021/12/18 05:31:34;;;;;;;2.72;1.45;;;;;;;5.07;100.00;103772.19;4879704;29;20206;-80
2021/12/18 05:34:02;;;;;;;2.97;1.70;;;;;;;5.10;100.00;103771.38;4878759;29;20171;-80
2021/12/18 05:36:34;;;;;;;2.20;1.77;;;;;;;5.09;100.00;103786.41;4849660;29;20174;-80
2021/12/18 05:39:10;;;;;;;3.65;1.70;;;;;;;5.05;100.00;103776.56;4849087;29;20175;-80
2021/12/18 05:41:36;;;;;;;2.70;1.75;;;;;;;5.07;100.00;103787.22;4849394;29;20567;-80
2021/12/18 05:44:03;;;;;;;3.58;2.40;;;;;;;5.02;100.00;103779.09;4879356;29;20185;-80
2021/12/18 05:46:29;;;;;;;3.38;2.30;;;;;;;5.06;100.00;103781.00;4849276;29;20186;-80
2021/12/18 05:48:54;;;;;;;3.58;2.45;;;;;;;5.06;100.00;103791.63;4853477;29;20498;-80
2021/12/18 05:51:20;;;;;;;3.45;2.28;;;;;;;5.16;100.00;103780.47;4852450;29;20193;-80
2021/12/18 05:53:46;;;;;;;3.30;2.53;;;;;;;5.11;100.00;103778.50;4875210;29;20191;-80
2021/12/18 05:56:12;;;;;;;4.22;3.00;;;;;;;5.07;100.00;103773.94;4875335;29;20254;-78
2021/12/18 05:58:37;;;;;;;6.53;3.70;;;;;;;5.04;100.00;103768.53;4845689;29;20217;-79
2021/12/18 06:01:03;;;;;;;3.05;2.45;;;;;;;5.09;100.00;103769.56;4875379;29;20206;-79
2021/12/18 06:03:28;;;;;;;3.72;2.63;;;;;;;5.12;100.00;103765.25;4876823;29;20309;-78
2021/12/18 06:05:54;;;;;;;4.22;3.00;;;;;;;5.13;100.00;103771.47;4874881;29;20175;-79
2021/12/18 06:08:19;;;;;;;4.95;3.65;;;;;;;5.15;100.00;103769.78;4844975;29;20532;-78
2021/12/18 06:10:45;;;;;;;5.32;3.10;;;;;;;5.16;100.00;103766.28;4875557;29;20732;-79
2021/12/18 06:13:10;;;;;;;4.60;3.28;;;;;;;5.09;100.00;103764.25;4875042;29;20198;-80
2021/12/18 06:15:35;;;;;;;6.00;3.25;;;;;;;5.07;100.00;103771.28;4875314;29;20215;-79
2021/12/18 06:18:02;;;;;;;4.25;3.17;;;;;;;5.08;100.00;103768.69;4875242;29;20537;-79
2021/12/18 06:20:28;;;;;;;4.88;3.58;;;;;;;5.08;100.00;103775.75;4845983;29;20167;-79
2021/12/18 06:22:54;;;;;;;4.60;3.08;;;;;;;5.09;100.00;103756.28;4876097;29;20608;-79
2021/12/18 06:25:20;;;;;;;5.30;3.33;;;;;;;5.12;100.00;103757.28;4875958;29;20206;-80
2021/12/18 06:27:45;;;;;;;3.75;2.75;;;;;;;5.09;100.00;103751.84;4846382;29;20189;-79
2021/12/18 06:30:12;;;;;;;5.60;3.67;;;;;;;5.11;100.00;103757.22;4846175;29;20187;-79
2021/12/18 06:32:39;;;;;;;9.00;3.92;;;;;;;5.13;100.00;103760.84;4845778;29;20237;-80
2021/12/18 06:35:05;;;;;;;5.88;3.47;;;;;;;5.19;100.00;103752.19;4846908;29;20199;-80
2021/12/18 06:37:31;;;;;;;6.45;4.10;;;;;;;5.18;100.00;103753.91;4876371;29;20182;-80
2021/12/18 06:39:56;;;;;;;6.53;3.40;;;;;;;5.13;100.00;103755.53;4847103;29;20179;-80
2021/12/18 06:42:22;;;;;;;5.45;3.67;;;;;;;5.18;100.00;103753.91;4846812;29;20282;-80
2021/12/18 06:44:47;;;;;;;6.32;4.20;;;;;;;5.21;100.00;103756.69;4870255;29;20167;-80
2021/12/18 06:47:12;;;;;;;6.38;4.10;;;;;;;5.25;100.00;103758.59;4845484;29;20724;-80
2021/12/18 06:49:38;;;;;;;8.02;4.70;;;;;;;5.21;100.00;103751.38;4845518;29;20183;-80
2021/12/18 06:52:04;;;;;;;8.70;6.55;;;;;;;5.25;100.00;103749.72;4845724;29;20198;-80
2021/12/18 06:54:29;;;;;;;10.50;7.05;;;;;;;5.27;100.00;103756.88;4845226;29;20218;-80
2021/12/18 06:56:54;;;;;;;10.60;5.97;;;;;;;5.22;100.00;103757.56;4859608;29;20266;-80
2021/12/18 06:59:20;;;;;;;8.07;4.57;;;;;;;5.22;100.00;103745.19;4847034;29;20641;-81
2021/12/18 07:01:45;;;;;;;7.47;4.47;;;;;;;5.25;100.00;103750.59;4845950;29;20741;-80
2021/12/18 07:04:11;;;;;;;6.63;4.40;;;;;;;5.24;100.00;103742.56;4859998;29;20214;-81
2021/12/18 07:06:36;;;;;;;6.38;4.28;;;;;;;5.20;100.00;103746.88;4845996;29;20179;-79
2021/12/18 07:09:03;;;;;;;6.60;3.88;;;;;;;5.24;100.00;103739.91;4847551;29;20253;-80
2021/12/18 07:11:28;;;;;;;5.88;3.92;;;;;;;5.30;100.00;103737.47;4861010;29;20197;-79
2021/12/18 07:13:55;;;;;;;6.03;3.70;;;;;;;5.31;100.00;103742.81;4861293;29;20178;-79
2021/12/18 07:16:20;;;;;;;9.48;6.18;;;;;;;5.35;100.00;103742.03;4877192;29;20269;-79
2021/12/18 07:18:46;;;;;;;6.78;5.00;;;;;;;5.26;100.00;103732.91;4863175;29;20186;-80
2021/12/18 07:21:11;;;;;;;6.00;3.33;;;;;;;5.24;100.00;103722.19;4862942;29;20181;-81
2021/12/18 07:23:37;;;;;;;4.95;3.40;;;;;;;5.25;100.00;103733.75;4864011;29;20238;-81
2021/12/18 07:26:02;;;;;;;3.58;2.72;;;;;;;5.32;100.00;103735.75;4863767;29;20170;-79
2021/12/18 07:28:27;;;;;;;4.40;3.00;;;;;;;5.33;100.00;103738.44;4877143;29;20182;-79
2021/12/18 07:30:53;;;;;;;4.70;3.05;;;;;;;5.30;100.00;103740.13;4862066;29;20245;-79
2021/12/18 07:33:18;;;;;;;3.15;2.65;;;;;;;5.23;100.00;103730.16;4863265;29;20688;-80
2021/12/18 07:35:44;;;;;;;4.03;2.80;;;;;;;5.29;100.00;103738.28;4843822;29;20652;-80
2021/12/18 07:38:11;;;;;;;7.15;3.10;;;;;;;5.25;100.00;103739.09;4844359;29;20262;-80
2021/12/18 07:40:37;;;;;;;3.47;2.42;;;;;;;5.33;100.00;103737.53;4845618;29;20258;-79
2021/12/18 07:43:03;;;;;;;4.53;2.45;;;;;;;5.31;100.00;103739.25;4845472;29;20591;-80
2021/12/18 07:45:33;;;;;;;4.55;3.30;;;;;;;5.30;100.00;103733.03;4843320;29;20273;-80
2021/12/18 07:47:58;;;;;;;4.32;2.67;;;;;;;5.29;100.00;103736.56;4842676;29;20203;-80
2021/12/18 07:50:24;;;;;;;3.80;2.35;;;;;;;5.29;100.00;103725.94;4843070;29;20178;-80
2021/12/18 07:52:50;;;;;;;3.28;2.72;;;;;;;5.29;100.00;103739.22;4842567;29;20426;-80
2021/12/18 07:55:17;;;;;;;3.80;3.00;;;;;;;5.29;100.00;103731.25;4842932;29;20270;-79
2021/12/18 07:57:43;;;;;;;4.05;3.10;;;;;;;5.32;100.00;103725.13;4828397;29;20250;-80
2021/12/18 08:00:13;;;;;;;7.57;4.25;;;;;;;5.31;100.00;103733.94;4845587;29;20627;-80
2021/12/18 08:02:39;;;;;;;4.75;3.70;;;;;;;5.35;100.00;103727.84;4845322;29;20721;-80
2021/12/18 08:05:05;;;;;;;5.15;3.03;;;;;;;5.39;100.00;103728.84;4828756;29;20179;-79
2021/12/18 08:07:30;;;;;;;3.00;2.70;;;;;;;5.36;100.00;103735.88;4835386;29;20656;-79
2021/12/18 08:09:56;;;;;;;2.38;2.17;;;;;;;5.39;100.00;103731.50;4876687;29;20222;-79
2021/12/18 08:12:21;;;;;;;5.07;3.55;;;;;;;5.32;100.00;103733.97;4876354;29;20201;-80
2021/12/18 08:14:47;;;;;;;2.97;2.78;;;;;;;5.33;100.00;103735.78;4876624;29;20202;-81
2021/12/18 08:17:12;;;;;;;3.35;2.83;;;;;;;5.43;100.00;103736.97;4875417;29;20182;-79
2021/12/18 08:19:38;;;;;;;3.85;2.70;;;;;;;5.43;100.00;103731.66;4876417;29;20190;-79
2021/12/18 08:22:03;;;;;;;3.28;2.97;;;;;;;5.43;100.00;103736.06;4877195;29;20206;-79
2021/12/18 08:24:29;;;;;;;2.67;2.40;;;;;;;5.45;100.00;103740.56;4863081;29;20178;-77
2021/12/18 08:26:54;;;;;;;3.08;2.65;;;;;;;5.45;100.00;103727.28;4874427;29;20268;-78
2021/12/18 08:29:20;;;;;;;2.17;1.98;;;;;;;5.52;100.00;103728.34;4859146;29;20875;-78
2021/12/18 08:31:47;;;;;;;2.25;2.05;;;;;;;5.47;100.00;103737.97;4875565;29;20221;-78
2021/12/18 08:34:13;;;;;;;2.20;1.98;;;;;;;5.45;100.00;103729.94;4861573;29;20186;-80
2021/12/18 08:36:39;;;;;;;1.90;1.70;;;;;;;5.51;100.00;103721.22;4861595;29;20166;-78
2021/12/18 08:39:04;;;;;;;2.22;2.00;;;;;;;5.57;100.00;103721.41;4875825;29;20674;-79
2021/12/18 08:41:30;;;;;;;2.45;2.25;;;;;;;5.58;100.00;103739.19;4875596;29;20699;-80
2021/12/18 08:43:55;;;;;;;3.70;3.28;;;;;;;5.56;100.00;103728.50;4863802;29;20178;-80
2021/12/18 08:46:21;;;;;;;3.85;3.50;;;;;;;5.55;100.00;103717.78;4877284;29;20341;-80
2021/12/18 08:48:47;;;;;;;4.13;3.05;;;;;;;5.61;100.00;103727.72;4857138;29;20187;-78
2021/12/18 08:51:12;;;;;;;2.40;2.20;;;;;;;5.65;100.00;103726.97;4860232;29;20177;-79
2021/12/18 08:53:38;;;;;;;2.05;1.85;;;;;;;5.66;100.00;103729.66;4861834;29;20174;-79
2021/12/18 08:56:04;;;;;;;3.40;1.85;;;;;;;5.63;100.00;103721.59;4855321;29;20230;-79
2021/12/18 08:58:30;;;;;;;2.47;2.10;;;;;;;5.69;100.00;103715.56;4858932;29;20182;-79
2021/12/18 09:00:56;;;;;;;2.60;2.35;;;;;;;5.68;100.00;103716.41;4853856;29;20202;-79
2021/12/18 09:03:22;;;;;;;3.40;2.80;;;;;;;5.68;100.00;103719.06;4843031;29;20820;-79
2021/12/18 09:05:48;;;;;;;4.90;2.92;;;;;;;5.72;100.00;103724.50;4877403;29;20257;-80
2021/12/18 09:08:14;;;;;;;4.70;3.22;;;;;;;5.72;100.00;103711.22;4876922;29;20170;-80
2021/12/18 09:10:40;;;;;;;4.63;3.05;;;;;;;5.75;100.00;103716.63;4861755;29;20261;-79
2021/12/18 09:13:05;;;;;;;6.95;3.30;;;;;;;5.75;100.00;103716.63;4868985;29;20241;-80
2021/12/18 09:15:31;;;;;;;5.72;3.85;;;;;;;5.76;100.00;103710.44;4842891;29;20199;-80
2021/12/18 09:17:56;;;;;;;5.97;4.18;;;;;;;5.77;100.00;103712.25;4843087;29;20175;-80
2021/12/18 09:20:22;;;;;;;12.63;4.75;;;;;;;5.85;100.00;103711.56;4844339;29;20672;-80
2021/12/18 09:22:47;;;;;;;8.95;4.65;;;;;;;5.87;100.00;103704.53;4858805;29;20202;-81
2021/12/18 09:25:13;;;;;;;7.03;4.68;;;;;;;5.93;100.00;103707.38;4844299;29;20167;-80
2021/12/18 09:27:38;;;;;;;13.85;5.30;;;;;;;5.95;100.00;103708.34;4844531;29;20198;-80
2021/12/18 09:30:06;;;;;;;13.23;6.28;;;;;;;5.95;100.00;103708.34;4848209;29;20212;-80
2021/12/18 09:32:31;;;;;;;12.98;5.72;;;;;;;5.99;100.00;103704.88;4862829;29;20199;-79
2021/12/18 09:34:57;;;;;;;11.90;5.63;;;;;;;5.98;100.00;103697.75;4862164;29;20217;-80
2021/12/18 09:37:22;;;;;;;14.20;6.18;;;;;;;6.01;100.00;103696.94;4862050;29;20565;-79
2021/12/18 09:39:48;;;;;;;14.40;5.18;;;;;;;6.03;100.00;103696.13;4862352;29;20191;-80
2021/12/18 09:42:13;;;;;;;11.50;5.53;;;;;;;6.06;100.00;103684.69;4862857;29;20264;-79
2021/12/18 09:44:39;;;;;;;13.63;5.10;;;;;;;6.06;100.00;103684.69;4862235;29;20214;-79
2021/12/18 09:47:05;;;;;;;12.35;5.28;;;;;;;6.06;100.00;103682.91;4861641;29;20563;-80
2021/12/18 09:49:32;;;;;;;14.10;5.20;;;;;;;6.09;100.00;103688.31;4848272;29;20186;-80
2021/12/18 09:51:58;;;;;;;11.38;4.75;;;;;;;6.14;100.00;103677.78;4846867;29;20210;-79
2021/12/18 09:54:24;;;;;;;13.93;4.78;;;;;;;6.19;100.00;103679.72;4847251;29;20708;-80
2021/12/18 09:56:51;;;;;;;17.45;5.18;;;;;;;6.20;100.00;103669.94;4861390;29;20187;-80
2021/12/18 09:59:16;;;;;;;17.27;5.20;;;;;;;6.35;100.00;103670.34;4861442;29;20262;-79
2021/12/18 10:01:42;;;;;;;15.38;4.50;;;;;;;6.36;100.00;103661.50;4846925;29;20783;-80
2021/12/18 10:04:30;;;;;;;19.40;5.35;;;;;;;6.38;100.00;103662.44;4845927;29;20178;-80
2021/12/18 10:06:58;;;;;;;16.38;5.10;;;;;;;6.36;100.00;103660.59;4861591;29;20697;-79
2021/12/18 10:09:23;;;;;;;13.75;4.35;;;;;;;6.38;100.00;103656.19;4848532;29;20171;-79
2021/12/18 10:11:52;;;;;;;14.93;4.18;;;;;;;6.41;100.00;103650.97;4862702;29;20757;-79
2021/12/18 10:14:30;;;;;;;19.58;4.40;;;;;;;6.42;100.00;103634.09;4862511;29;20527;-79
2021/12/18 10:16:56;;;;;;;22.25;4.38;;;;;;;6.48;100.00;103636.94;4848117;29;20186;-80
2021/12/18 10:19:30;;;;;;;10.35;3.67;;;;;;;6.51;100.00;103634.31;4847407;29;20178;-80
2021/12/18 10:21:58;;;;;;;24.50;4.78;;;;;;;6.54;100.00;103649.50;4846578;29;20863;-80
2021/12/18 10:24:25;;;;;;;21.38;5.63;;;;;;;6.55;100.00;103629.97;4862894;29;20224;-79
2021/12/18 10:26:50;;;;;;;18.95;4.82;;;;;;;6.57;100.00;103634.47;4863690;29;20556;-79
2021/12/18 10:29:25;;;;;;;21.52;4.70;;;;;;;6.69;100.00;103632.94;4864682;29;20183;-78
2021/12/18 10:31:51;;;;;;;19.88;4.47;;;;;;;6.66;100.00;103625.78;4864172;29;20194;-79
2021/12/18 10:34:23;;;;;;;14.35;4.20;;;;;;;6.73;100.00;103621.50;4849324;29;20274;-79
2021/12/18 10:37:11;;;;;;;14.07;4.20;;;;;;;6.71;100.00;103625.91;4863225;29;20178;-80
2021/12/18 10:39:39;;;;;;;21.17;4.32;;;;;;;6.74;100.00;103624.22;4861860;29;20187;-80
2021/12/18 10:42:15;;;;;;;20.35;3.85;;;;;;;6.79;100.00;103617.22;4848622;29;20681;-79
2021/12/18 10:44:55;;;;;;;15.57;3.72;;;;;;;6.84;100.00;103625.31;4862898;29;20275;-81
2021/12/18 10:47:22;;;;;;;16.88;3.92;;;;;;;6.88;100.00;103612.97;4848542;29;20202;-80
2021/12/18 10:49:47;;;;;;;16.08;3.40;;;;;;;6.87;100.00;103609.41;4847568;29;20599;-80
2021/12/18 10:52:12;;;;;;;14.32;4.10;;;;;;;6.91;100.00;103608.59;4847534;29;20247;-79
2021/12/18 10:54:38;;;;;;;18.98;4.45;;;;;;;6.96;100.00;103609.59;4849006;29;20645;-78
2021/12/18 10:57:04;;;;;;;19.67;3.75;;;;;;;6.93;100.00;103611.28;4849355;29;20171;-79
2021/12/18 10:59:36;;;;;;;17.92;4.20;;;;;;;6.93;100.00;103624.59;4848796;29;20175;-79
2021/12/18 11:02:10;;;;;;;20.23;4.18;;;;;;;6.95;100.00;103610.47;4847811;29;20199;-79
2021/12/18 11:04:39;;;;;;;18.35;3.80;;;;;;;6.96;100.00;103611.38;4848420;29;20166;-79
2021/12/18 11:07:30;;;;;;;21.52;4.32;;;;;;;6.96;100.00;103608.69;4846827;29;20198;-79
2021/12/18 11:10:12;;;;;;;20.42;4.07;;;;;;;6.94;100.00;103616.66;4846725;29;20270;-79
2021/12/18 11:15:22;;;;;;;19.45;4.10;;;;;;;6.98;100.00;103597.19;4845802;29;20210;-79
2021/12/18 11:17:48;;;;;;;21.38;4.30;;;;;;;7.05;100.00;103598.22;4846562;29;20182;-80
2021/12/18 11:20:13;;;;;;;19.15;4.63;;;;;;;7.03;100.00;103580.41;4847088;29;20261;-80
2021/12/18 11:22:41;;;;;;;17.48;4.20;;;;;;;7.06;100.00;103588.47;4842630;29;20297;-79
2021/12/18 11:25:09;;;;;;;20.45;4.18;;;;;;;7.06;100.00;103594.69;4843455;29;20182;-80
2021/12/18 11:27:36;;;;;;;23.15;4.63;;;;;;;7.04;100.00;103580.44;4844678;29;20194;-79
2021/12/18 11:30:06;;;;;;;17.55;4.93;;;;;;;7.05;100.00;103598.22;4845823;29;20243;-79
2021/12/18 11:32:34;;;;;;;17.60;4.03;;;;;;;7.04;100.00;103580.44;4859587;29;20286;-80
2021/12/18 11:35:03;;;;;;;22.00;4.65;;;;;;;7.05;100.00;103579.56;4860173;29;20315;-80
2021/12/18 11:37:40;;;;;;;14.52;4.22;;;;;;;7.04;100.00;103572.44;4844798;29;20182;-80
2021/12/18 11:40:07;;;;;;;20.98;3.97;;;;;;;7.08;100.00;103576.94;4859888;29;20232;-80
2021/12/18 11:42:35;;;;;;;17.63;4.45;;;;;;;7.14;100.00;103565.53;4846598;29;20207;-78
2021/12/18 11:45:06;;;;;;;16.27;4.63;;;;;;;7.10;100.00;103563.66;4847457;29;20175;-79
2021/12/18 11:47:40;;;;;;;15.55;4.20;;;;;;;7.19;100.00;103559.44;4847355;29;20656;-80
2021/12/18 11:50:24;;;;;;;19.08;4.10;;;;;;;7.22;100.00;103550.59;4845357;29;20186;-79
2021/12/18 11:52:56;;;;;;;18.27;3.97;;;;;;;7.22;100.00;103553.25;4861904;29;20207;-79
2021/12/18 11:55:25;;;;;;;19.67;4.10;;;;;;;7.21;100.00;103546.09;4848409;29;20289;-80
2021/12/18 11:57:53;;;;;;;18.15;4.70;;;;;;;7.20;100.00;103552.31;4844524;29;20183;-80
2021/12/18 12:00:18;;;;;;;22.83;4.68;;;;;;;7.21;100.00;103548.78;4845995;29;20579;-80
2021/12/18 12:03:11;;;;;;;18.90;4.10;;;;;;;7.19;100.00;103539.84;4846654;29;20254;-79
2021/12/18 12:05:46;;;;;;;17.48;4.32;;;;;;;7.18;100.00;103546.94;4848662;29;20394;-79